sensor_id;sensor_type;location;lat;lon;timestamp;temperature;humidity
31074;DHT22;17730;53.552;9.940;2023-03-31T00:00:56;11.40;99.90
31074;DHT22;17730;53.552;9.940;2023-03-31T00:03:22;11.40;99.90
31074;DHT22;17730;53.552;9.940;2023-03-31T00:05:48;11.40;99.70
31074;DHT22;17730;53.552;9.940;2023-03-31T00:08:17;11.40;97.10
31074;DHT22;17730;53.552;9.940;2023-03-31T00:10:44;11.40;95.10
31074;DHT22;17730;53.552;9.940;2023-03-31T00:13:11;11.40;92.00
31074;DHT22;17730;53.552;9.940;2023-03-31T00:15:37;11.40;90.60
31074;DHT22;17730;53.552;9.940;2023-03-31T00:18:02;11.40;99.90
31074;DHT22;17730;53.552;9.940;2023-03-31T00:20:28;11.40;88.00
31074;DHT22;17730;53.552;9.940;2023-03-31T00:22:53;11.30;84.80
31074;DHT22;17730;53.552;9.940;2023-03-31T00:25:21;11.30;79.50
31074;DHT22;17730;53.552;9.940;2023-03-31T00:27:47;11.30;99.90
31074;DHT22;17730;53.552;9.940;2023-03-31T00:30:14;11.30;99.90
31074;DHT22;17730;53.552;9.940;2023-03-31T00:32:40;11.30;99.90
31074;DHT22;17730;53.552;9.940;2023-03-31T00:35:05;11.20;99.90
31074;DHT22;17730;53.552;9.940;2023-03-31T00:37:31;11.20;99.90
31074;DHT22;17730;53.552;9.940;2023-03-31T00:40:00;11.20;59.00
31074;DHT22;17730;53.552;9.940;2023-03-31T00:42:25;11.10;58.10
31074;DHT22;17730;53.552;9.940;2023-03-31T00:47:35;11.10;59.60
31074;DHT22;17730;53.552;9.940;2023-03-31T00:50:00;11.10;59.00
31074;DHT22;17730;53.552;9.940;2023-03-31T00:52:27;11.10;56.20
31074;DHT22;17730;53.552;9.940;2023-03-31T00:54:58;11.10;53.20
31074;DHT22;17730;53.552;9.940;2023-03-31T00:57:24;11.10;42.20
31074;DHT22;17730;53.552;9.940;2023-03-31T00:59:54;11.10;36.80
31074;DHT22;17730;53.552;9.940;2023-03-31T01:02:21;11.10;25.60
31074;DHT22;17730;53.552;9.940;2023-03-31T01:04:51;11.10;15.30
31074;DHT22;17730;53.552;9.940;2023-03-31T01:07:20;11.20;5.00
31074;DHT22;17730;53.552;9.940;2023-03-31T01:09:47;11.20;1.00
31074;DHT22;17730;53.552;9.940;2023-03-31T01:12:13;11.20;1.00
31074;DHT22;17730;53.552;9.940;2023-03-31T01:14:39;11.20;1.00
31074;DHT22;17730;53.552;9.940;2023-03-31T01:17:05;11.20;1.00
31074;DHT22;17730;53.552;9.940;2023-03-31T01:27:25;11.30;1.00
31074;DHT22;17730;53.552;9.940;2023-03-31T01:32:40;11.30;1.00
31074;DHT22;17730;53.552;9.940;2023-03-31T01:38:00;11.40;99.90
31074;DHT22;17730;53.552;9.940;2023-03-31T01:40:34;11.40;99.90
31074;DHT22;17730;53.552;9.940;2023-03-31T01:48:58;11.40;99.90
31074;DHT22;17730;53.552;9.940;2023-03-31T01:51:32;11.40;99.90
31074;DHT22;17730;53.552;9.940;2023-03-31T01:56:32;11.30;99.90
31074;DHT22;17730;53.552;9.940;2023-03-31T02:01:51;11.30;1.00
31074;DHT22;17730;53.552;9.940;2023-03-31T02:04:26;11.30;99.90
31074;DHT22;17730;53.552;9.940;2023-03-31T02:06:57;11.30;1.00
31074;DHT22;17730;53.552;9.940;2023-03-31T02:09:25;11.30;1.00
31074;DHT22;17730;53.552;9.940;2023-03-31T02:11:53;11.30;27.10
31074;DHT22;17730;53.552;9.940;2023-03-31T02:14:21;11.30;8.90
31074;DHT22;17730;53.552;9.940;2023-03-31T02:16:48;11.30;17.70
31074;DHT22;17730;53.552;9.940;2023-03-31T02:19:16;11.20;1.00
31074;DHT22;17730;53.552;9.940;2023-03-31T02:21:44;11.30;1.00
31074;DHT22;17730;53.552;9.940;2023-03-31T02:24:12;11.20;99.90
31074;DHT22;17730;53.552;9.940;2023-03-31T02:26:56;11.10;1.00
31074;DHT22;17730;53.552;9.940;2023-03-31T02:29:25;11.10;99.90
31074;DHT22;17730;53.552;9.940;2023-03-31T02:31:59;11.10;99.90
31074;DHT22;17730;53.552;9.940;2023-03-31T02:34:26;11.10;99.90
31074;DHT22;17730;53.552;9.940;2023-03-31T02:36:51;11.00;99.90
31074;DHT22;17730;53.552;9.940;2023-03-31T02:39:22;11.00;99.90
31074;DHT22;17730;53.552;9.940;2023-03-31T02:41:48;11.00;99.90
31074;DHT22;17730;53.552;9.940;2023-03-31T02:44:14;11.00;99.90
31074;DHT22;17730;53.552;9.940;2023-03-31T02:46:39;11.00;99.90
31074;DHT22;17730;53.552;9.940;2023-03-31T02:49:06;11.00;99.90
31074;DHT22;17730;53.552;9.940;2023-03-31T02:51:42;11.00;99.90
31074;DHT22;17730;53.552;9.940;2023-03-31T02:59:15;11.00;1.00
31074;DHT22;17730;53.552;9.940;2023-03-31T03:01:43;10.90;1.00
31074;DHT22;17730;53.552;9.940;2023-03-31T03:06:53;10.90;1.00
31074;DHT22;17730;53.552;9.940;2023-03-31T03:09:34;10.90;1.00
31074;DHT22;17730;53.552;9.940;2023-03-31T03:17:09;10.90;30.50
31074;DHT22;17730;53.552;9.940;2023-03-31T03:19:36;10.90;16.30
31074;DHT22;17730;53.552;9.940;2023-03-31T03:22:02;10.90;26.80
31074;DHT22;17730;53.552;9.940;2023-03-31T03:24:27;10.90;41.70
31074;DHT22;17730;53.552;9.940;2023-03-31T03:26:54;10.90;26.20
31074;DHT22;17730;53.552;9.940;2023-03-31T03:29:19;10.90;20.10
31074;DHT22;17730;53.552;9.940;2023-03-31T03:31:45;10.90;15.90
31074;DHT22;17730;53.552;9.940;2023-03-31T03:34:10;10.90;13.80
31074;DHT22;17730;53.552;9.940;2023-03-31T03:36:36;10.90;18.90
31074;DHT22;17730;53.552;9.940;2023-03-31T03:39:02;10.90;21.30
31074;DHT22;17730;53.552;9.940;2023-03-31T03:41:28;10.90;38.70
31074;DHT22;17730;53.552;9.940;2023-03-31T03:43:54;10.90;24.10
31074;DHT22;17730;53.552;9.940;2023-03-31T03:46:19;10.90;25.80
31074;DHT22;17730;53.552;9.940;2023-03-31T03:48:45;10.90;24.50
31074;DHT22;17730;53.552;9.940;2023-03-31T03:51:10;11.00;25.30
31074;DHT22;17730;53.552;9.940;2023-03-31T03:53:36;10.90;27.90
31074;DHT22;17730;53.552;9.940;2023-03-31T03:56:01;10.90;34.10
31074;DHT22;17730;53.552;9.940;2023-03-31T03:58:27;11.00;37.60
31074;DHT22;17730;53.552;9.940;2023-03-31T04:00:52;11.00;33.00
31074;DHT22;17730;53.552;9.940;2023-03-31T04:03:18;11.00;32.70
31074;DHT22;17730;53.552;9.940;2023-03-31T04:05:43;11.00;32.40
31074;DHT22;17730;53.552;9.940;2023-03-31T04:08:09;11.10;30.00
31074;DHT22;17730;53.552;9.940;2023-03-31T04:10:35;11.10;25.20
31074;DHT22;17730;53.552;9.940;2023-03-31T04:13:00;11.10;22.70
31074;DHT22;17730;53.552;9.940;2023-03-31T04:15:26;11.10;22.70
31074;DHT22;17730;53.552;9.940;2023-03-31T04:17:51;11.10;20.90
31074;DHT22;17730;53.552;9.940;2023-03-31T04:20:18;11.10;21.40
31074;DHT22;17730;53.552;9.940;2023-03-31T04:22:44;11.10;18.00
31074;DHT22;17730;53.552;9.940;2023-03-31T04:25:11;11.10;13.80
31074;DHT22;17730;53.552;9.940;2023-03-31T04:27:44;11.10;13.60
31074;DHT22;17730;53.552;9.940;2023-03-31T04:30:23;11.00;14.40
31074;DHT22;17730;53.552;9.940;2023-03-31T04:32:49;11.10;14.30
31074;DHT22;17730;53.552;9.940;2023-03-31T04:35:16;11.10;13.90
31074;DHT22;17730;53.552;9.940;2023-03-31T04:37:42;11.10;14.50
31074;DHT22;17730;53.552;9.940;2023-03-31T04:40:08;11.10;14.80
31074;DHT22;17730;53.552;9.940;2023-03-31T04:42:34;11.10;13.20
31074;DHT22;17730;53.552;9.940;2023-03-31T04:45:00;11.10;11.50
31074;DHT22;17730;53.552;9.940;2023-03-31T04:47:26;11.10;8.10
31074;DHT22;17730;53.552;9.940;2023-03-31T04:49:51;11.10;7.10
31074;DHT22;17730;53.552;9.940;2023-03-31T04:52:16;11.10;8.00
31074;DHT22;17730;53.552;9.940;2023-03-31T04:54:42;11.10;8.30
31074;DHT22;17730;53.552;9.940;2023-03-31T04:57:07;11.10;5.40
31074;DHT22;17730;53.552;9.940;2023-03-31T04:59:33;11.10;5.00
31074;DHT22;17730;53.552;9.940;2023-03-31T05:01:58;11.10;4.60
31074;DHT22;17730;53.552;9.940;2023-03-31T05:04:24;11.10;4.80
31074;DHT22;17730;53.552;9.940;2023-03-31T05:06:49;11.10;2.50
31074;DHT22;17730;53.552;9.940;2023-03-31T05:09:15;11.10;1.00
31074;DHT22;17730;53.552;9.940;2023-03-31T05:11:40;11.10;20.50
31074;DHT22;17730;53.552;9.940;2023-03-31T05:14:06;11.10;1.00
31074;DHT22;17730;53.552;9.940;2023-03-31T05:16:31;11.20;24.70
31074;DHT22;17730;53.552;9.940;2023-03-31T05:18:57;11.10;1.00
31074;DHT22;17730;53.552;9.940;2023-03-31T05:21:22;11.10;1.00
31074;DHT22;17730;53.552;9.940;2023-03-31T05:23:48;11.20;1.00
31074;DHT22;17730;53.552;9.940;2023-03-31T05:26:14;11.10;1.00
31074;DHT22;17730;53.552;9.940;2023-03-31T05:28:40;11.20;1.00
31074;DHT22;17730;53.552;9.940;2023-03-31T05:31:05;11.20;1.00
31074;DHT22;17730;53.552;9.940;2023-03-31T05:33:31;11.20;1.00
31074;DHT22;17730;53.552;9.940;2023-03-31T05:35:57;11.20;53.60
31074;DHT22;17730;53.552;9.940;2023-03-31T05:38:25;11.20;1.00
31074;DHT22;17730;53.552;9.940;2023-03-31T05:40:53;11.20;1.00
31074;DHT22;17730;53.552;9.940;2023-03-31T05:43:18;11.20;1.00
31074;DHT22;17730;53.552;9.940;2023-03-31T05:45:44;11.20;1.00
31074;DHT22;17730;53.552;9.940;2023-03-31T05:48:09;11.20;1.00
31074;DHT22;17730;53.552;9.940;2023-03-31T05:50:35;11.30;1.00
31074;DHT22;17730;53.552;9.940;2023-03-31T05:53:00;11.30;1.00
31074;DHT22;17730;53.552;9.940;2023-03-31T05:55:25;11.30;1.00
31074;DHT22;17730;53.552;9.940;2023-03-31T05:57:51;11.30;1.00
31074;DHT22;17730;53.552;9.940;2023-03-31T06:00:17;11.40;1.00
31074;DHT22;17730;53.552;9.940;2023-03-31T06:02:43;11.40;1.00
31074;DHT22;17730;53.552;9.940;2023-03-31T06:05:08;11.40;99.90
31074;DHT22;17730;53.552;9.940;2023-03-31T06:07:33;11.50;99.90
31074;DHT22;17730;53.552;9.940;2023-03-31T06:10:00;11.50;99.90
31074;DHT22;17730;53.552;9.940;2023-03-31T06:12:25;11.50;99.90
31074;DHT22;17730;53.552;9.940;2023-03-31T06:14:50;11.60;99.90
31074;DHT22;17730;53.552;9.940;2023-03-31T06:17:16;11.60;99.90
31074;DHT22;17730;53.552;9.940;2023-03-31T06:19:41;11.70;99.90
31074;DHT22;17730;53.552;9.940;2023-03-31T06:22:07;11.70;99.90
31074;DHT22;17730;53.552;9.940;2023-03-31T06:24:32;12.00;99.90
31074;DHT22;17730;53.552;9.940;2023-03-31T06:26:58;12.50;99.90
31074;DHT22;17730;53.552;9.940;2023-03-31T06:29:25;12.50;1.00
31074;DHT22;17730;53.552;9.940;2023-03-31T06:31:51;12.40;99.90
31074;DHT22;17730;53.552;9.940;2023-03-31T06:34:16;12.30;99.90
31074;DHT22;17730;53.552;9.940;2023-03-31T06:36:42;12.20;1.00
31074;DHT22;17730;53.552;9.940;2023-03-31T06:39:07;12.10;1.00
31074;DHT22;17730;53.552;9.940;2023-03-31T06:41:33;12.10;11.30
31074;DHT22;17730;53.552;9.940;2023-03-31T06:43:58;12.10;34.10
31074;DHT22;17730;53.552;9.940;2023-03-31T06:46:24;12.20;50.70
31074;DHT22;17730;53.552;9.940;2023-03-31T06:48:49;12.40;99.90
31074;DHT22;17730;53.552;9.940;2023-03-31T06:51:15;12.50;99.90
31074;DHT22;17730;53.552;9.940;2023-03-31T06:53:40;12.60;1.00
31074;DHT22;17730;53.552;9.940;2023-03-31T06:56:06;12.70;99.90
31074;DHT22;17730;53.552;9.940;2023-03-31T06:58:32;12.80;99.90
31074;DHT22;17730;53.552;9.940;2023-03-31T07:00:57;12.80;99.90
31074;DHT22;17730;53.552;9.940;2023-03-31T07:03:23;12.80;99.90
31074;DHT22;17730;53.552;9.940;2023-03-31T07:05:50;12.90;99.90
31074;DHT22;17730;53.552;9.940;2023-03-31T07:08:16;12.90;99.90
31074;DHT22;17730;53.552;9.940;2023-03-31T07:10:44;13.00;40.00
31074;DHT22;17730;53.552;9.940;2023-03-31T07:13:14;12.90;1.00
31074;DHT22;17730;53.552;9.940;2023-03-31T07:15:40;12.90;1.00
31074;DHT22;17730;53.552;9.940;2023-03-31T07:18:06;13.00;23.60
31074;DHT22;17730;53.552;9.940;2023-03-31T07:20:31;13.10;17.30
31074;DHT22;17730;53.552;9.940;2023-03-31T07:22:57;13.10;1.00
31074;DHT22;17730;53.552;9.940;2023-03-31T07:25:23;13.20;1.00
31074;DHT22;17730;53.552;9.940;2023-03-31T07:27:48;13.20;99.90
31074;DHT22;17730;53.552;9.940;2023-03-31T07:30:14;13.30;99.90
31074;DHT22;17730;53.552;9.940;2023-03-31T07:32:40;13.30;99.90
31074;DHT22;17730;53.552;9.940;2023-03-31T07:35:06;13.10;99.90
31074;DHT22;17730;53.552;9.940;2023-03-31T07:37:39;13.00;99.90
31074;DHT22;17730;53.552;9.940;2023-03-31T07:40:05;12.90;99.90
31074;DHT22;17730;53.552;9.940;2023-03-31T07:42:32;12.90;99.90
31074;DHT22;17730;53.552;9.940;2023-03-31T07:44:58;12.80;99.90
31074;DHT22;17730;53.552;9.940;2023-03-31T07:47:24;12.80;99.90
31074;DHT22;17730;53.552;9.940;2023-03-31T07:49:50;12.70;1.00
31074;DHT22;17730;53.552;9.940;2023-03-31T07:52:15;12.70;1.00
31074;DHT22;17730;53.552;9.940;2023-03-31T07:54:42;12.60;35.60
31074;DHT22;17730;53.552;9.940;2023-03-31T07:57:08;12.60;70.50
31074;DHT22;17730;53.552;9.940;2023-03-31T07:59:34;12.50;99.90
31074;DHT22;17730;53.552;9.940;2023-03-31T08:02:00;12.40;99.90
31074;DHT22;17730;53.552;9.940;2023-03-31T08:04:25;12.30;99.90
31074;DHT22;17730;53.552;9.940;2023-03-31T08:06:51;12.20;99.90
31074;DHT22;17730;53.552;9.940;2023-03-31T08:09:16;12.20;1.00
31074;DHT22;17730;53.552;9.940;2023-03-31T08:11:42;12.20;35.40
31074;DHT22;17730;53.552;9.940;2023-03-31T08:14:08;12.20;99.90
31074;DHT22;17730;53.552;9.940;2023-03-31T08:16:34;12.20;91.90
31074;DHT22;17730;53.552;9.940;2023-03-31T08:19:00;12.30;99.90
31074;DHT22;17730;53.552;9.940;2023-03-31T08:21:29;12.40;99.50
31074;DHT22;17730;53.552;9.940;2023-03-31T08:23:55;12.40;99.10
31074;DHT22;17730;53.552;9.940;2023-03-31T08:26:20;12.50;99.90
31074;DHT22;17730;53.552;9.940;2023-03-31T08:28:48;12.60;99.90
31074;DHT22;17730;53.552;9.940;2023-03-31T08:31:14;12.70;99.90
31074;DHT22;17730;53.552;9.940;2023-03-31T08:33:43;12.70;99.90
31074;DHT22;17730;53.552;9.940;2023-03-31T08:36:08;12.80;99.90
31074;DHT22;17730;53.552;9.940;2023-03-31T08:38:38;12.90;99.90
31074;DHT22;17730;53.552;9.940;2023-03-31T08:43:44;13.20;84.60
31074;DHT22;17730;53.552;9.940;2023-03-31T08:46:10;13.30;1.00
31074;DHT22;17730;53.552;9.940;2023-03-31T08:48:41;13.20;1.00
31074;DHT22;17730;53.552;9.940;2023-03-31T08:51:20;13.10;99.90
31074;DHT22;17730;53.552;9.940;2023-03-31T08:53:49;13.00;1.00
31074;DHT22;17730;53.552;9.940;2023-03-31T08:56:18;13.00;1.00
31074;DHT22;17730;53.552;9.940;2023-03-31T08:58:46;12.90;1.00
31074;DHT22;17730;53.552;9.940;2023-03-31T09:09:24;12.50;75.50
31074;DHT22;17730;53.552;9.940;2023-03-31T09:11:53;12.50;99.90
31074;DHT22;17730;53.552;9.940;2023-03-31T09:14:26;12.60;99.90
31074;DHT22;17730;53.552;9.940;2023-03-31T09:16:55;12.60;99.90
31074;DHT22;17730;53.552;9.940;2023-03-31T09:19:32;12.80;99.90
31074;DHT22;17730;53.552;9.940;2023-03-31T09:21:59;12.90;99.90
31074;DHT22;17730;53.552;9.940;2023-03-31T09:24:33;13.10;99.90
31074;DHT22;17730;53.552;9.940;2023-03-31T09:27:02;13.20;99.90
31074;DHT22;17730;53.552;9.940;2023-03-31T09:29:42;13.30;99.90
31074;DHT22;17730;53.552;9.940;2023-03-31T09:32:14;13.40;49.80
31074;DHT22;17730;53.552;9.940;2023-03-31T09:34:40;13.40;1.00
31074;DHT22;17730;53.552;9.940;2023-03-31T09:37:05;13.40;1.00
31074;DHT22;17730;53.552;9.940;2023-03-31T09:39:31;13.40;99.90
31074;DHT22;17730;53.552;9.940;2023-03-31T09:41:56;13.40;99.90
31074;DHT22;17730;53.552;9.940;2023-03-31T09:44:25;13.50;99.90
31074;DHT22;17730;53.552;9.940;2023-03-31T09:46:52;13.60;99.90
31074;DHT22;17730;53.552;9.940;2023-03-31T09:49:19;13.60;99.90
31074;DHT22;17730;53.552;9.940;2023-03-31T09:51:46;13.70;99.90
31074;DHT22;17730;53.552;9.940;2023-03-31T09:54:21;13.70;99.90
31074;DHT22;17730;53.552;9.940;2023-03-31T09:56:49;13.80;99.90
31074;DHT22;17730;53.552;9.940;2023-03-31T09:59:18;13.90;99.90
31074;DHT22;17730;53.552;9.940;2023-03-31T10:01:45;14.10;99.90
31074;DHT22;17730;53.552;9.940;2023-03-31T10:04:19;14.30;99.90
31074;DHT22;17730;53.552;9.940;2023-03-31T10:06:45;14.30;99.90
31074;DHT22;17730;53.552;9.940;2023-03-31T10:09:13;14.30;70.60
31074;DHT22;17730;53.552;9.940;2023-03-31T10:11:39;14.40;13.10
31074;DHT22;17730;53.552;9.940;2023-03-31T10:14:15;14.40;1.00
31074;DHT22;17730;53.552;9.940;2023-03-31T10:16:48;14.50;1.00
31074;DHT22;17730;53.552;9.940;2023-03-31T10:19:21;14.40;1.00
31074;DHT22;17730;53.552;9.940;2023-03-31T10:21:48;14.40;99.90
31074;DHT22;17730;53.552;9.940;2023-03-31T10:24:19;14.30;99.90
31074;DHT22;17730;53.552;9.940;2023-03-31T10:26:47;14.20;99.90
31074;DHT22;17730;53.552;9.940;2023-03-31T10:29:17;14.20;1.00
31074;DHT22;17730;53.552;9.940;2023-03-31T10:31:43;14.10;1.00
31074;DHT22;17730;53.552;9.940;2023-03-31T10:34:11;14.20;37.60
31074;DHT22;17730;53.552;9.940;2023-03-31T10:36:47;14.30;97.40
31074;DHT22;17730;53.552;9.940;2023-03-31T10:39:14;14.40;1.00
31074;DHT22;17730;53.552;9.940;2023-03-31T10:41:40;14.60;1.00
31074;DHT22;17730;53.552;9.940;2023-03-31T10:44:10;14.70;1.00
31074;DHT22;17730;53.552;9.940;2023-03-31T10:46:51;14.80;99.90
31074;DHT22;17730;53.552;9.940;2023-03-31T10:51:49;15.10;99.90
31074;DHT22;17730;53.552;9.940;2023-03-31T10:54:16;15.10;54.30
31074;DHT22;17730;53.552;9.940;2023-03-31T10:56:45;15.00;1.00
31074;DHT22;17730;53.552;9.940;2023-03-31T11:06:55;14.80;99.90
31074;DHT22;17730;53.552;9.940;2023-03-31T11:09:43;14.80;99.90
31074;DHT22;17730;53.552;9.940;2023-03-31T11:12:17;14.80;99.90
31074;DHT22;17730;53.552;9.940;2023-03-31T11:15:07;14.80;99.90
31074;DHT22;17730;53.552;9.940;2023-03-31T11:20:37;14.90;99.90
31074;DHT22;17730;53.552;9.940;2023-03-31T11:25:33;14.90;99.90
31074;DHT22;17730;53.552;9.940;2023-03-31T11:30:54;14.80;99.90
31074;DHT22;17730;53.552;9.940;2023-03-31T11:38:26;14.20;99.90
31074;DHT22;17730;53.552;9.940;2023-03-31T11:41:31;14.00;99.90
31074;DHT22;17730;53.552;9.940;2023-03-31T11:43:47;13.90;1.00
31074;DHT22;17730;53.552;9.940;2023-03-31T11:46:19;13.70;64.20
31074;DHT22;17730;53.552;9.940;2023-03-31T11:48:50;13.60;97.70
31074;DHT22;17730;53.552;9.940;2023-03-31T11:51:21;13.40;99.90
31074;DHT22;17730;53.552;9.940;2023-03-31T11:53:49;13.40;99.90
31074;DHT22;17730;53.552;9.940;2023-03-31T11:56:16;13.20;99.90
31074;DHT22;17730;53.552;9.940;2023-03-31T11:58:52;13.10;99.90
31074;DHT22;17730;53.552;9.940;2023-03-31T12:01:23;13.00;1.00
31074;DHT22;17730;53.552;9.940;2023-03-31T12:06:19;12.90;63.20
31074;DHT22;17730;53.552;9.940;2023-03-31T12:11:23;12.60;99.90
31074;DHT22;17730;53.552;9.940;2023-03-31T12:13:54;12.60;99.90
31074;DHT22;17730;53.552;9.940;2023-03-31T12:16:21;12.60;99.90
31074;DHT22;17730;53.552;9.940;2023-03-31T12:19:01;12.60;99.90
31074;DHT22;17730;53.552;9.940;2023-03-31T12:21:28;12.50;99.90
31074;DHT22;17730;53.552;9.940;2023-03-31T12:23:55;12.50;99.90
31074;DHT22;17730;53.552;9.940;2023-03-31T12:26:28;12.40;99.90
31074;DHT22;17730;53.552;9.940;2023-03-31T12:28:57;12.40;99.90
31074;DHT22;17730;53.552;9.940;2023-03-31T12:31:24;12.30;1.00
31074;DHT22;17730;53.552;9.940;2023-03-31T12:33:53;12.30;1.00
31074;DHT22;17730;53.552;9.940;2023-03-31T12:36:25;12.30;1.00
31074;DHT22;17730;53.552;9.940;2023-03-31T12:41:38;12.30;1.00
31074;DHT22;17730;53.552;9.940;2023-03-31T12:52:07;12.40;1.00
31074;DHT22;17730;53.552;9.940;2023-03-31T12:54:36;12.50;1.00
31074;DHT22;17730;53.552;9.940;2023-03-31T12:59:34;12.70;1.00
31074;DHT22;17730;53.552;9.940;2023-03-31T13:02:21;12.80;1.00
31074;DHT22;17730;53.552;9.940;2023-03-31T13:04:47;12.90;1.00
31074;DHT22;17730;53.552;9.940;2023-03-31T13:09:48;13.50;1.00
31074;DHT22;17730;53.552;9.940;2023-03-31T13:12:18;13.80;1.00
31074;DHT22;17730;53.552;9.940;2023-03-31T13:14:44;14.10;99.90
31074;DHT22;17730;53.552;9.940;2023-03-31T13:17:27;14.30;99.90
31074;DHT22;17730;53.552;9.940;2023-03-31T13:19:54;14.40;44.30
31074;DHT22;17730;53.552;9.940;2023-03-31T13:22:30;14.50;1.00
31074;DHT22;17730;53.552;9.940;2023-03-31T13:25:25;14.50;99.90
31074;DHT22;17730;53.552;9.940;2023-03-31T13:27:50;14.50;99.90
31074;DHT22;17730;53.552;9.940;2023-03-31T13:33:03;14.30;99.90
31074;DHT22;17730;53.552;9.940;2023-03-31T13:35:29;14.20;99.90
31074;DHT22;17730;53.552;9.940;2023-03-31T13:38:00;14.30;99.90
31074;DHT22;17730;53.552;9.940;2023-03-31T13:40:33;14.30;99.90
31074;DHT22;17730;53.552;9.940;2023-03-31T13:48:05;14.50;99.90
31074;DHT22;17730;53.552;9.940;2023-03-31T13:50:36;14.60;99.90
31074;DHT22;17730;53.552;9.940;2023-03-31T13:58:05;14.60;1.00
31074;DHT22;17730;53.552;9.940;2023-03-31T14:03:15;15.00;1.00
31074;DHT22;17730;53.552;9.940;2023-03-31T14:05:44;15.20;99.90
31074;DHT22;17730;53.552;9.940;2023-03-31T14:08:16;15.30;99.90
31074;DHT22;17730;53.552;9.940;2023-03-31T14:10:44;15.40;1.00
31074;DHT22;17730;53.552;9.940;2023-03-31T14:13:16;15.50;99.90
31074;DHT22;17730;53.552;9.940;2023-03-31T14:15:55;15.60;99.90
31074;DHT22;17730;53.552;9.940;2023-03-31T14:18:56;15.50;94.70
31074;DHT22;17730;53.552;9.940;2023-03-31T14:26:50;15.50;1.00
31074;DHT22;17730;53.552;9.940;2023-03-31T14:29:22;15.50;1.00
31074;DHT22;17730;53.552;9.940;2023-03-31T14:39:16;15.20;1.00
31074;DHT22;17730;53.552;9.940;2023-03-31T14:41:49;15.20;1.00
31074;DHT22;17730;53.552;9.940;2023-03-31T14:44:14;15.20;1.00
31074;DHT22;17730;53.552;9.940;2023-03-31T14:46:42;15.00;73.10
31074;DHT22;17730;53.552;9.940;2023-03-31T14:49:17;15.10;99.90
31074;DHT22;17730;53.552;9.940;2023-03-31T14:51:43;15.20;99.90
31074;DHT22;17730;53.552;9.940;2023-03-31T14:54:16;15.50;99.90
31074;DHT22;17730;53.552;9.940;2023-03-31T14:56:42;15.70;99.90
31074;DHT22;17730;53.552;9.940;2023-03-31T14:59:09;15.80;99.90
31074;DHT22;17730;53.552;9.940;2023-03-31T15:01:35;15.80;99.90
31074;DHT22;17730;53.552;9.940;2023-03-31T15:04:06;15.70;99.90
31074;DHT22;17730;53.552;9.940;2023-03-31T15:06:32;15.50;1.00
31074;DHT22;17730;53.552;9.940;2023-03-31T15:08:59;15.30;1.00
31074;DHT22;17730;53.552;9.940;2023-03-31T15:11:26;15.10;60.10
31074;DHT22;17730;53.552;9.940;2023-03-31T15:13:53;14.90;92.30
31074;DHT22;17730;53.552;9.940;2023-03-31T15:18:44;14.60;99.90
31074;DHT22;17730;53.552;9.940;2023-03-31T15:21:20;14.50;99.90
31074;DHT22;17730;53.552;9.940;2023-03-31T15:23:46;14.40;99.90
31074;DHT22;17730;53.552;9.940;2023-03-31T15:26:11;14.20;15.80
31074;DHT22;17730;53.552;9.940;2023-03-31T15:28:50;14.10;99.90
31074;DHT22;17730;53.552;9.940;2023-03-31T15:31:16;14.00;99.90
31074;DHT22;17730;53.552;9.940;2023-03-31T15:33:42;14.00;99.90
31074;DHT22;17730;53.552;9.940;2023-03-31T15:36:11;13.90;1.00
31074;DHT22;17730;53.552;9.940;2023-03-31T15:38:37;14.00;1.00
31074;DHT22;17730;53.552;9.940;2023-03-31T15:41:02;14.00;1.00
31074;DHT22;17730;53.552;9.940;2023-03-31T15:43:32;14.00;99.90
31074;DHT22;17730;53.552;9.940;2023-03-31T15:46:10;13.90;99.90
31074;DHT22;17730;53.552;9.940;2023-03-31T15:48:50;13.90;99.90
31074;DHT22;17730;53.552;9.940;2023-03-31T15:51:18;14.00;99.90
31074;DHT22;17730;53.552;9.940;2023-03-31T15:53:45;14.00;99.90
31074;DHT22;17730;53.552;9.940;2023-03-31T15:56:28;14.00;99.90
31074;DHT22;17730;53.552;9.940;2023-03-31T15:58:58;14.10;97.60
31074;DHT22;17730;53.552;9.940;2023-03-31T16:01:29;14.10;1.00
31074;DHT22;17730;53.552;9.940;2023-03-31T16:03:57;14.10;1.00
31074;DHT22;17730;53.552;9.940;2023-03-31T16:09:01;14.00;99.90
31074;DHT22;17730;53.552;9.940;2023-03-31T16:11:48;14.10;99.90
31074;DHT22;17730;53.552;9.940;2023-03-31T16:14:16;14.00;99.90
31074;DHT22;17730;53.552;9.940;2023-03-31T16:16:51;13.80;99.90
31074;DHT22;17730;53.552;9.940;2023-03-31T16:19:18;13.60;99.90
31074;DHT22;17730;53.552;9.940;2023-03-31T16:21:46;13.50;1.00
31074;DHT22;17730;53.552;9.940;2023-03-31T16:24:14;13.30;99.90
31074;DHT22;17730;53.552;9.940;2023-03-31T16:26:40;13.20;99.90
31074;DHT22;17730;53.552;9.940;2023-03-31T16:29:06;13.10;99.90
31074;DHT22;17730;53.552;9.940;2023-03-31T16:31:35;13.10;1.00
31074;DHT22;17730;53.552;9.940;2023-03-31T16:34:05;13.00;1.00
31074;DHT22;17730;53.552;9.940;2023-03-31T16:36:31;12.90;65.30
31074;DHT22;17730;53.552;9.940;2023-03-31T16:38:56;12.80;99.90
31074;DHT22;17730;53.552;9.940;2023-03-31T16:41:24;12.70;99.90
31074;DHT22;17730;53.552;9.940;2023-03-31T16:43:51;12.70;99.90
31074;DHT22;17730;53.552;9.940;2023-03-31T16:46:18;12.70;99.90
31074;DHT22;17730;53.552;9.940;2023-03-31T16:48:44;12.70;99.90
31074;DHT22;17730;53.552;9.940;2023-03-31T16:51:10;12.70;99.90
31074;DHT22;17730;53.552;9.940;2023-03-31T16:53:35;12.70;99.90
31074;DHT22;17730;53.552;9.940;2023-03-31T16:56:02;12.70;99.90
31074;DHT22;17730;53.552;9.940;2023-03-31T16:58:27;12.70;99.90
31074;DHT22;17730;53.552;9.940;2023-03-31T17:00:53;12.70;99.90
31074;DHT22;17730;53.552;9.940;2023-03-31T17:03:19;12.80;99.90
31074;DHT22;17730;53.552;9.940;2023-03-31T17:05:46;12.80;99.90
31074;DHT22;17730;53.552;9.940;2023-03-31T17:08:12;12.80;99.90
31074;DHT22;17730;53.552;9.940;2023-03-31T17:10:38;12.80;99.90
31074;DHT22;17730;53.552;9.940;2023-03-31T17:13:04;12.80;99.90
31074;DHT22;17730;53.552;9.940;2023-03-31T17:15:30;12.90;99.90
31074;DHT22;17730;53.552;9.940;2023-03-31T17:17:56;12.90;99.90
31074;DHT22;17730;53.552;9.940;2023-03-31T17:20:23;12.90;99.90
31074;DHT22;17730;53.552;9.940;2023-03-31T17:22:49;12.90;99.90
31074;DHT22;17730;53.552;9.940;2023-03-31T17:25:14;12.90;99.90
31074;DHT22;17730;53.552;9.940;2023-03-31T17:27:40;12.90;99.90
31074;DHT22;17730;53.552;9.940;2023-03-31T17:30:06;12.90;99.90
31074;DHT22;17730;53.552;9.940;2023-03-31T17:32:33;12.90;99.90
31074;DHT22;17730;53.552;9.940;2023-03-31T17:34:58;12.80;99.90
31074;DHT22;17730;53.552;9.940;2023-03-31T17:37:24;12.80;99.90
31074;DHT22;17730;53.552;9.940;2023-03-31T17:39:50;12.80;99.90
31074;DHT22;17730;53.552;9.940;2023-03-31T17:42:15;12.80;1.00
31074;DHT22;17730;53.552;9.940;2023-03-31T17:44:41;12.80;1.00
31074;DHT22;17730;53.552;9.940;2023-03-31T17:47:07;12.70;1.00
31074;DHT22;17730;53.552;9.940;2023-03-31T17:49:32;12.80;23.40